Time,TemperatureF,DewpointF,PressureIn,WindDirection,WindDirectionDegrees,WindSpeedMPH,WindSpeedGustMPH,Humidity,HourlyPrecipIn,Conditions,Clouds,dailyrainin,SoftwareType,DateUTC
2013-03-12 00:00:00,57.3,53.1,29.87,SE,135,1.0,7.0,86,0.01,,,0.00,WUHU216DAVISVP2,2013-03-12 04:00:00,
2013-03-12 00:30:00,56.6,53.7,29.87,SW,225,2.0,8.0,90,0.01,,,0.00,WUHU216DAVISVP2,2013-03-12 04:30:00,
2013-03-12 01:00:00,56.0,53.7,29.86,SSW,203,1.0,6.0,92,0.02,,,0.02,WUHU216DAVISVP2,2013-03-12 05:00:00,
2013-03-12 01:30:00,55.7,53.7,29.84,SE,135,1.0,5.0,93,0.03,,,0.05,WUHU216DAVISVP2,2013-03-12 05:30:00,
2013-03-12 02:00:00,55.4,53.7,29.83,SE,135,1.0,4.0,94,0.03,,,0.08,WUHU216DAVISVP2,2013-03-12 06:00:00,
2013-03-12 02:30:00,55.6,53.9,29.82,SSW,203,1.0,6.0,94,0.03,,,0.11,WUHU216DAVISVP2,2013-03-12 06:30:00,
2013-03-12 03:00:00,55.5,54.1,29.81,SE,135,1.0,5.0,95,0.04,,,0.15,WUHU216DAVISVP2,2013-03-12 07:00:00,
2013-03-12 03:30:00,55.5,54.1,29.78,SSE,158,1.0,5.0,95,0.06,,,0.21,WUHU216DAVISVP2,2013-03-12 07:30:00,
2013-03-12 04:00:00,55.8,54.7,29.76,ESE,113,1.0,5.0,96,0.08,,,0.29,WUHU216DAVISVP2,2013-03-12 08:00:00,
2013-03-12 04:30:00,56.4,55.3,29.74,SE,135,1.0,6.0,96,0.04,,,0.33,WUHU216DAVISVP2,2013-03-12 08:30:00,
2013-03-12 05:00:00,57.3,56.2,29.73,SW,225,2.0,10.0,96,0.06,,,0.39,WUHU216DAVISVP2,2013-03-12 09:00:00,
2013-03-12 05:30:00,58.0,56.9,29.73,SSW,203,2.0,10.0,96,0.01,,,0.40,WUHU216DAVISVP2,2013-03-12 09:30:00,
2013-03-12 06:00:00,58.0,56.9,29.72,SW,225,2.0,5.0,96,0.02,,,0.42,WUHU216DAVISVP2,2013-03-12 10:00:00,
2013-03-12 06:30:00,58.0,56.9,29.72,SW,225,1.0,7.0,96,0.13,,,0.55,WUHU216DAVISVP2,2013-03-12 10:30:00,
2013-03-12 07:00:00,57.8,57.0,29.72,SW,225,1.0,3.0,97,0.16,,,0.71,WUHU216DAVISVP2,2013-03-12 11:00:00,
2013-03-12 07:30:00,57.9,57.1,29.73,SW,225,2.0,6.0,97,0.02,,,0.73,WUHU216DAVISVP2,2013-03-12 11:30:00,
2013-03-12 08:00:00,58.0,56.9,29.73,SW,225,3.0,11.0,96,0.00,,,0.73,WUHU216DAVISVP2,2013-03-12 12:00:00,
2013-03-12 08:30:00,57.6,56.5,29.74,WSW,248,4.0,9.0,96,0.00,,,0.73,WUHU216DAVISVP2,2013-03-12 12:30:00,
2013-03-12 09:00:00,57.2,55.8,29.76,West,270,4.0,8.0,95,0.02,,,0.75,WUHU216DAVISVP2,2013-03-12 13:00:00,
2013-03-12 09:30:00,56.9,55.2,29.77,West,270,3.0,6.0,94,0.00,,,0.75,WUHU216DAVISVP2,2013-03-12 13:30:00,
2013-03-12 10:00:00,55.8,52.6,29.77,WSW,248,2.0,6.0,89,0.00,,,0.75,WUHU216DAVISVP2,2013-03-12 14:00:00,
2013-03-12 10:30:00,55.0,51.5,29.79,NNW,338,4.0,8.0,88,0.00,,,0.75,WUHU216DAVISVP2,2013-03-12 14:30:00,
2013-03-12 11:00:00,55.1,50.4,29.81,WNW,293,4.0,10.0,84,0.00,,,0.75,WUHU216DAVISVP2,2013-03-12 15:00:00,
2013-03-12 11:30:00,55.9,49.1,29.81,West,270,5.0,12.0,78,0.00,,,0.75,WUHU216DAVISVP2,2013-03-12 15:30:00,
2013-03-12 12:00:00,57.1,46.2,29.82,West,270,5.0,14.0,67,0.00,,,0.75,WUHU216DAVISVP2,2013-03-12 16:00:00,
2013-03-12 12:30:00,57.9,46.2,29.82,West,270,5.0,12.0,65,0.00,,,0.75,WUHU216DAVISVP2,2013-03-12 16:30:00,
2013-03-12 13:00:00,59.8,46.3,29.81,West,270,4.0,10.0,61,0.00,,,0.75,WUHU216DAVISVP2,2013-03-12 17:00:00,
2013-03-12 13:30:00,61.4,46.9,29.80,West,270,5.0,14.0,59,0.00,,,0.75,WUHU216DAVISVP2,2013-03-12 17:30:00,
2013-03-12 14:00:00,62.4,46.0,29.79,West,270,6.0,16.0,55,0.00,,,0.75,WUHU216DAVISVP2,2013-03-12 18:00:00,
2013-03-12 14:30:00,63.1,44.7,29.79,West,270,5.0,13.0,51,0.00,,,0.75,WUHU216DAVISVP2,2013-03-12 18:30:00,
2013-03-12 15:00:00,63.5,40.6,29.79,West,270,7.0,12.0,43,0.00,,,0.75,WUHU216DAVISVP2,2013-03-12 19:00:00,
2013-03-12 15:30:00,63.5,41.2,29.79,West,270,7.0,15.0,44,0.00,,,0.75,WUHU216DAVISVP2,2013-03-12 19:30:00,
2013-03-12 16:00:00,63.4,41.1,29.80,West,270,6.0,14.0,44,0.00,,,0.75,WUHU216DAVISVP2,2013-03-12 20:00:00,
2013-03-12 16:30:00,62.9,38.8,29.80,West,270,7.0,14.0,41,0.00,,,0.75,WUHU216DAVISVP2,2013-03-12 20:30:00,
2013-03-12 17:00:00,62.3,37.7,29.81,West,270,8.0,18.0,40,0.00,,,0.75,WUHU216DAVISVP2,2013-03-12 21:00:00,
2013-03-12 17:30:00,61.5,36.9,29.82,West,270,7.0,16.0,40,0.00,,,0.75,WUHU216DAVISVP2,2013-03-12 21:30:00,
2013-03-12 18:00:00,61.4,38.1,29.82,West,270,6.0,13.0,42,0.00,,,0.75,WUHU216DAVISVP2,2013-03-12 22:00:00,
2013-03-12 18:30:00,60.3,37.7,29.83,West,270,5.0,11.0,43,0.00,,,0.75,WUHU216DAVISVP2,2013-03-12 22:30:00,
2013-03-12 19:00:00,58.4,34.2,29.86,West,270,5.0,11.0,40,0.00,,,0.75,WUHU216DAVISVP2,2013-03-12 23:00:00,
2013-03-12 19:30:00,55.7,33.5,29.88,NW,315,2.0,6.0,43,0.00,,,0.75,WUHU216DAVISVP2,2013-03-12 23:30:00,
2013-03-12 20:00:00,53.4,31.4,29.90,NNW,338,2.0,6.0,43,0.00,,,0.75,WUHU216DAVISVP2,2013-03-13 00:00:00,
2013-03-12 20:30:00,52.1,31.4,29.92,NW,315,3.0,9.0,45,0.00,,,0.75,WUHU216DAVISVP2,2013-03-13 00:30:00,
2013-03-12 21:00:00,50.5,32.0,29.94,NW,315,1.0,6.0,49,0.00,,,0.75,WUHU216DAVISVP2,2013-03-13 01:00:00,
2013-03-12 21:30:00,49.2,31.8,29.95,NNW,338,1.0,4.0,51,0.00,,,0.75,WUHU216DAVISVP2,2013-03-13 01:30:00,
2013-03-12 22:00:00,48.1,32.2,29.95,NW,315,2.0,6.0,54,0.00,,,0.75,WUHU216DAVISVP2,2013-03-13 02:00:00,
2013-03-12 22:30:00,47.0,32.1,29.96,NNW,338,1.0,4.0,56,0.00,,,0.75,WUHU216DAVISVP2,2013-03-13 02:30:00,
2013-03-12 23:00:00,45.7,31.8,29.97,NW,315,1.0,6.0,58,0.00,,,0.75,WUHU216DAVISVP2,2013-03-13 03:00:00,
2013-03-12 23:30:00,45.2,31.7,29.97,NW,315,2.0,6.0,59,0.00,,,0.75,WUHU216DAVISVP2,2013-03-13 03:30:00,